Amberson, Pennsylvania
Current Conditions -  °F | °C
As of 8:39 PM on Thursday 27 Nov 2014 (Local Time) from KHGR Reporting Station
Light Snow Light Snow  
Wind Chill: -2°   Ceiling: 1800
Heat Index:   Visibility: 3mi
Dew Point: -1°   Wind: 7mph
Humidity: 89%   Direction: 260°W
Pressure: 30.14"   Gusts: NA
Location:  40.17°N, 77.68°W
Report Text: KHGR 280139Z 26006KT 3SM -SN BR SCT007 BKN018 OVC034 01/M01 A3014 RMK AO2 P0000 T00111006 $
Loading
Personal Weather Stations






























Interactive Weather Map New forecast layout! Learn more

10-Day Weather Forecast

Advertisements
Track Severe Weather on mobile